createdAt,value
2022-08-25T00:00:38.169Z,21.06
2022-08-25T00:05:46.050Z,21.10
2022-08-25T00:11:00.331Z,21.14
2022-08-25T00:16:06.958Z,21.13
2022-08-25T00:21:09.737Z,21.15
2022-08-25T00:26:12.889Z,21.17
2022-08-25T00:31:18.788Z,21.19
2022-08-25T00:36:21.785Z,21.17
2022-08-25T00:41:24.867Z,21.16
2022-08-25T00:46:35.844Z,21.18
2022-08-25T00:51:55.970Z,21.26
2022-08-25T00:56:59.489Z,21.32
2022-08-25T01:02:03.451Z,21.38
2022-08-25T01:07:06.649Z,21.44
2022-08-25T01:12:13.963Z,21.50
2022-08-25T01:17:16.919Z,21.50
2022-08-25T01:22:21.027Z,21.53
2022-08-25T01:27:23.800Z,21.54
2022-08-25T01:32:26.622Z,21.59
2022-08-25T01:37:29.459Z,21.64
2022-08-25T01:43:07.655Z,21.65
2022-08-25T01:48:10.968Z,21.63
2022-08-25T01:53:23.380Z,21.57
2022-08-25T01:58:29.156Z,21.55
2022-08-25T02:03:32.469Z,21.57
2022-08-25T02:08:35.497Z,21.58
2022-08-25T02:13:40.627Z,21.62
2022-08-25T02:18:43.403Z,21.55
2022-08-25T02:23:46.568Z,21.52
2022-08-25T02:28:50.208Z,21.54
2022-08-25T02:33:53.394Z,21.55
2022-08-25T02:38:56.192Z,21.56
2022-08-25T02:44:01.878Z,21.56
2022-08-25T02:49:06.471Z,21.62
2022-08-25T02:54:09.429Z,21.68
2022-08-25T02:59:12.210Z,21.76
2022-08-25T03:04:15.042Z,21.77
2022-08-25T03:09:18.175Z,21.70
2022-08-25T03:14:20.870Z,21.66
2022-08-25T03:19:24.829Z,21.68
2022-08-25T03:24:28.715Z,21.73
2022-08-25T03:29:33.237Z,21.67
2022-08-25T03:34:35.991Z,21.68
2022-08-25T03:39:38.718Z,21.68
2022-08-25T03:44:41.450Z,21.74
2022-08-25T03:49:44.329Z,21.74
2022-08-25T03:54:47.197Z,21.75
2022-08-25T03:59:50.085Z,21.74
2022-08-25T04:04:54.036Z,21.72
2022-08-25T04:09:58.471Z,21.70
2022-08-25T04:15:01.237Z,21.70
2022-08-25T04:20:05.702Z,21.74
2022-08-25T04:25:09.201Z,21.73
2022-08-25T04:30:13.298Z,21.76
2022-08-25T04:35:17.245Z,21.77
2022-08-25T04:40:20.425Z,21.81
2022-08-25T04:45:31.646Z,21.81
2022-08-25T04:50:37.947Z,21.89
2022-08-25T04:55:47.812Z,22.02
2022-08-25T05:00:50.652Z,22.09
2022-08-25T05:05:53.450Z,22.13
2022-08-25T05:10:56.914Z,22.12
2022-08-25T05:16:00.420Z,22.13
2022-08-25T05:21:06.662Z,22.18
2022-08-25T05:26:15.408Z,22.23
2022-08-25T05:31:21.332Z,22.39
2022-08-25T05:36:25.168Z,22.56
2022-08-25T05:41:29.570Z,22.71
2022-08-25T05:46:32.337Z,22.79
2022-08-25T05:51:35.764Z,22.90
2022-08-25T05:56:38.541Z,23.03
2022-08-25T06:02:00.618Z,23.14
2022-08-25T06:07:03.521Z,23.32
2022-08-25T06:12:07.552Z,23.47
2022-08-25T06:17:11.231Z,23.70
2022-08-25T06:22:14.032Z,23.88
2022-08-25T06:27:17.793Z,24.05
2022-08-25T06:32:20.718Z,24.30
2022-08-25T06:37:25.322Z,24.52
2022-08-25T06:42:28.397Z,24.76
2022-08-25T06:47:31.200Z,24.97
2022-08-25T06:52:34.092Z,25.20
2022-08-25T06:57:36.865Z,25.41
2022-08-25T07:02:39.738Z,25.69
2022-08-25T07:07:44.876Z,26.00
2022-08-25T07:12:47.748Z,26.23
2022-08-25T07:18:06.983Z,26.43
2022-08-25T07:23:09.999Z,26.65
2022-08-25T07:28:13.990Z,26.85
2022-08-25T07:33:16.702Z,26.99
2022-08-25T07:38:20.859Z,27.15
2022-08-25T07:43:23.850Z,27.29
2022-08-25T07:48:26.566Z,27.38
2022-08-25T07:53:29.310Z,27.35
2022-08-25T07:58:32.095Z,27.32
2022-08-25T08:03:50.158Z,27.26
2022-08-25T08:08:57.787Z,27.21
2022-08-25T08:14:01.939Z,27.18
2022-08-25T08:19:04.725Z,27.11
2022-08-25T08:24:24.949Z,27.15
2022-08-25T08:29:31.814Z,27.31
2022-08-25T08:34:34.866Z,27.49
2022-08-25T08:39:37.833Z,27.66
2022-08-25T08:44:46.716Z,27.80
2022-08-25T08:50:33.410Z,27.91
2022-08-25T08:55:52.917Z,28.00
2022-08-25T09:00:58.420Z,28.09
2022-08-25T09:06:06.797Z,28.19
2022-08-25T09:11:21.373Z,28.33
2022-08-25T09:17:16.566Z,28.54
2022-08-25T09:23:10.915Z,28.76
2022-08-25T09:28:35.966Z,28.99
2022-08-25T09:33:38.668Z,29.17
2022-08-25T09:38:41.532Z,29.34
2022-08-25T09:43:52.538Z,29.54
2022-08-25T09:48:57.590Z,29.72
2022-08-25T09:54:10.561Z,29.90
2022-08-25T09:59:40.155Z,30.17
2022-08-25T10:04:58.518Z,30.53
2022-08-25T10:10:07.802Z,31.25
2022-08-25T10:15:30.131Z,32.29
2022-08-25T10:20:35.210Z,33.43
2022-08-25T10:26:00.411Z,34.44
2022-08-25T10:31:25.858Z,35.55
2022-08-25T10:36:47.148Z,36.59
2022-08-25T10:42:08.183Z,37.49
2022-08-25T10:47:31.686Z,38.37
2022-08-25T10:53:33.392Z,39.32
2022-08-25T10:58:48.776Z,39.95
2022-08-25T11:04:07.937Z,40.98
2022-08-25T11:09:14.188Z,41.65
2022-08-25T11:14:35.097Z,41.95
2022-08-25T11:19:46.180Z,42.36
2022-08-25T11:25:00.330Z,43.13
2022-08-25T11:30:10.129Z,44.01
2022-08-25T11:35:14.418Z,44.78
2022-08-25T11:40:38.622Z,45.04
2022-08-25T11:46:02.498Z,45.54
2022-08-25T11:51:12.414Z,46.25
2022-08-25T11:56:34.125Z,46.78
2022-08-25T12:01:42.805Z,47.36
2022-08-25T12:07:11.318Z,47.76
2022-08-25T12:12:45.444Z,48.24
2022-08-25T12:18:09.073Z,48.54
2022-08-25T12:23:12.956Z,49.08
2022-08-25T12:28:52.033Z,49.36
2022-08-25T12:34:09.225Z,49.78
2022-08-25T12:39:19.416Z,50.52
2022-08-25T12:44:47.410Z,50.80
2022-08-25T12:49:50.980Z,51.17
2022-08-25T12:54:58.593Z,51.40
2022-08-25T13:00:16.161Z,51.55
2022-08-25T13:05:35.402Z,51.62
2022-08-25T13:10:58.734Z,51.78
2022-08-25T13:16:08.900Z,51.88
2022-08-25T13:21:30.621Z,51.87
2022-08-25T13:26:38.328Z,51.98
2022-08-25T13:32:02.013Z,52.05
2022-08-25T13:37:29.716Z,52.43
2022-08-25T13:42:32.997Z,52.86
2022-08-25T13:47:45.182Z,52.82
2022-08-25T13:52:53.758Z,52.88
2022-08-25T13:58:00.007Z,53.37
2022-08-25T14:03:12.612Z,53.41
2022-08-25T14:08:32.347Z,53.25
2022-08-25T14:13:35.495Z,53.65
2022-08-25T14:19:14.706Z,53.96
2022-08-25T14:24:23.260Z,54.03
2022-08-25T14:29:27.627Z,53.88
2022-08-25T14:34:38.543Z,53.84
2022-08-25T14:39:44.055Z,53.52
2022-08-25T14:44:47.125Z,52.16
2022-08-25T14:49:50.006Z,50.94
2022-08-25T14:54:53.544Z,48.42
2022-08-25T14:59:58.157Z,46.39
2022-08-25T15:05:05.859Z,44.52
2022-08-25T15:10:09.431Z,43.07
2022-08-25T15:15:17.349Z,41.77
2022-08-25T15:20:20.943Z,40.28
2022-08-25T15:25:24.518Z,39.08
2022-08-25T15:30:31.155Z,38.10
2022-08-25T15:35:34.654Z,37.25
2022-08-25T15:40:39.047Z,36.61
2022-08-25T15:45:41.944Z,36.01
2022-08-25T15:50:44.742Z,35.51
2022-08-25T15:55:47.471Z,34.91
2022-08-25T16:00:56.155Z,34.42
2022-08-25T16:05:59.537Z,34.06
2022-08-25T16:11:02.864Z,33.60
2022-08-25T16:16:06.145Z,33.12
2022-08-25T16:21:15.775Z,32.65
2022-08-25T16:26:18.700Z,32.15
2022-08-25T16:31:22.148Z,31.69
2022-08-25T16:36:25.398Z,31.31
2022-08-25T16:41:34.363Z,30.95
2022-08-25T16:46:40.753Z,30.61
2022-08-25T16:51:43.940Z,30.27
2022-08-25T16:56:46.716Z,29.87
2022-08-25T17:01:54.198Z,29.55
2022-08-25T17:06:57.411Z,29.24
2022-08-25T17:12:00.978Z,28.95
2022-08-25T17:17:06.989Z,28.67
2022-08-25T17:22:14.261Z,28.40
2022-08-25T17:27:18.542Z,28.12
2022-08-25T17:32:21.376Z,27.83
2022-08-25T17:37:31.835Z,27.51
2022-08-25T17:42:34.627Z,27.20
2022-08-25T17:47:37.755Z,26.93
2022-08-25T17:52:40.622Z,26.64
2022-08-25T17:57:43.376Z,26.37
2022-08-25T18:02:46.999Z,26.13
2022-08-25T18:07:49.813Z,25.91
2022-08-25T18:12:52.675Z,25.70
2022-08-25T18:17:57.021Z,25.46
2022-08-25T18:23:00.317Z,25.23
2022-08-25T18:28:03.717Z,25.01
2022-08-25T18:33:06.650Z,24.77
2022-08-25T18:38:28.131Z,24.57
2022-08-25T18:43:33.854Z,24.38
2022-08-25T18:48:37.153Z,24.21
2022-08-25T18:53:49.853Z,24.03
2022-08-25T18:58:53.435Z,23.87
2022-08-25T19:03:57.055Z,23.72
2022-08-25T19:08:59.740Z,23.58
2022-08-25T19:14:02.569Z,23.48
2022-08-25T19:19:06.750Z,23.40
2022-08-25T19:24:10.398Z,23.34
2022-08-25T19:29:17.300Z,23.26
2022-08-25T19:34:28.115Z,23.18
2022-08-25T19:39:31.301Z,23.09
2022-08-25T19:44:36.059Z,23.04
2022-08-25T19:49:40.111Z,22.99
2022-08-25T19:54:48.307Z,22.94
2022-08-25T19:59:50.991Z,22.89
2022-08-25T20:04:56.598Z,22.86
2022-08-25T20:10:00.311Z,22.81
2022-08-25T20:15:03.696Z,22.75
2022-08-25T20:20:09.517Z,22.66
2022-08-25T20:25:19.290Z,22.57
2022-08-25T20:30:28.703Z,22.48
2022-08-25T20:35:31.517Z,22.37
2022-08-25T20:40:34.585Z,22.26
2022-08-25T20:45:39.976Z,22.13
2022-08-25T20:50:42.726Z,22.01
2022-08-25T20:55:45.505Z,21.90
2022-08-25T21:00:48.331Z,21.78
2022-08-25T21:05:54.073Z,21.67
2022-08-25T21:10:57.096Z,21.56
2022-08-25T21:16:02.758Z,21.46
2022-08-25T21:21:16.625Z,21.37
2022-08-25T21:26:25.358Z,21.29
2022-08-25T21:31:29.301Z,21.22
2022-08-25T21:36:32.519Z,21.12
2022-08-25T21:41:35.603Z,21.01
2022-08-25T21:46:40.041Z,20.90
2022-08-25T21:51:44.605Z,20.78
2022-08-25T21:56:55.775Z,20.67
2022-08-25T22:02:02.981Z,20.57
2022-08-25T22:07:07.713Z,20.47
2022-08-25T22:12:10.592Z,20.37
2022-08-25T22:17:16.604Z,20.32
2022-08-25T22:22:21.055Z,20.27
2022-08-25T22:27:23.984Z,20.20
2022-08-25T22:32:26.801Z,20.14
2022-08-25T22:37:30.403Z,20.07
2022-08-25T22:42:33.728Z,20.01
2022-08-25T22:47:37.025Z,19.92
2022-08-25T22:52:42.271Z,19.87
2022-08-25T22:57:45.421Z,19.77
2022-08-25T23:02:53.154Z,19.70
2022-08-25T23:07:56.035Z,19.62
2022-08-25T23:12:58.825Z,19.56
2022-08-25T23:18:01.539Z,19.51
2022-08-25T23:23:04.390Z,19.43
2022-08-25T23:28:07.455Z,19.42
2022-08-25T23:33:15.562Z,19.36
2022-08-25T23:38:23.208Z,19.28
2022-08-25T23:43:25.940Z,19.16
2022-08-25T23:48:28.711Z,19.12
2022-08-25T23:53:31.693Z,19.09
2022-08-25T23:58:35.942Z,19.06
